Osorno, Chile
Current Conditions -  °F | °C
As of 10:00 AM on Sunday 25 Jan 2015 (Local Time) from SCTE Reporting Station
Haze Haze  
Wind Chill: 59°   Ceiling: 400
Heat Index: 59°   Visibility: 3mi
Dew Point: 57°   Wind: 3mph
Humidity: 94%   Direction: 170°S
Pressure: 29.94"   Gusts: NA
Location:  40.57°S, 73.16°W
Report Text: SCTE 251400Z 17003KT 5000 BR OVC004 15/14 Q1014 NOSIG
Loading
Personal Weather Stations






























Interactive Weather Map New forecast layout! Learn more

10-Day Weather Forecast

Advertisements
Track Severe Weather on mobile